createdAt,value
2018-01-23T10:32:17.995Z,7.20
2018-01-23T10:34:45.837Z,7.60
2018-01-23T10:37:13.728Z,6.80
2018-01-23T10:39:41.703Z,7.00
2018-01-23T10:42:09.570Z,8.07
2018-01-23T10:44:37.332Z,7.60
2018-01-23T10:47:05.116Z,7.95
2018-01-23T10:49:32.953Z,7.80
2018-01-23T10:52:02.371Z,7.78
2018-01-23T10:54:30.171Z,7.60
2018-01-23T10:56:58.068Z,8.02
2018-01-23T10:59:25.853Z,7.20
2018-01-23T11:01:53.800Z,7.68
2018-01-23T11:04:21.629Z,7.60
2018-01-23T11:06:49.366Z,8.20
2018-01-23T11:09:17.221Z,8.25
2018-01-23T11:11:45.044Z,8.10
2018-01-23T11:14:12.770Z,8.00
2018-01-23T11:16:40.809Z,8.50
2018-01-23T11:19:09.471Z,8.05
2018-01-23T11:21:37.427Z,8.48
2018-01-23T11:24:05.298Z,8.25
2018-01-23T11:26:33.044Z,9.02
2018-01-23T11:29:00.789Z,9.43
2018-01-23T11:31:28.603Z,9.60
2018-01-23T11:33:56.385Z,7.97
2018-01-23T11:36:25.292Z,8.00
2018-01-23T11:38:53.057Z,7.95
2018-01-23T11:41:20.853Z,8.02
2018-01-23T11:43:48.702Z,9.88
2018-01-23T11:46:16.531Z,8.27
2018-01-23T11:48:45.090Z,8.38
2018-01-23T11:51:12.803Z,7.72
2018-01-23T11:53:40.628Z,8.40
2018-01-23T11:56:08.337Z,8.10
2018-01-23T11:58:36.192Z,8.33
2018-01-23T12:01:04.487Z,8.27
2018-01-23T12:03:32.772Z,8.00
2018-01-23T12:06:00.713Z,8.57
2018-01-23T12:08:30.492Z,8.20
2018-01-23T12:10:58.497Z,8.55
2018-01-23T12:13:27.263Z,8.40
2018-01-23T12:15:55.764Z,8.25
2018-01-23T12:18:23.528Z,7.65
2018-01-23T12:20:52.039Z,8.45
2018-01-23T12:23:19.950Z,7.47
2018-01-23T12:25:47.801Z,8.20
2018-01-23T12:28:15.565Z,7.75
2018-01-23T12:30:43.289Z,8.05
2018-01-23T12:33:11.138Z,7.90
2018-01-23T12:35:38.949Z,6.85
2018-01-23T12:38:06.730Z,6.57
2018-01-23T12:40:34.590Z,7.50
2018-01-23T12:43:02.316Z,7.45
2018-01-23T12:45:30.078Z,6.90
2018-01-23T12:47:58.762Z,7.03
2018-01-23T12:50:27.495Z,7.10
2018-01-23T12:52:55.252Z,6.93
2018-01-23T12:55:23.023Z,7.20
2018-01-23T12:57:54.160Z,7.00
2018-01-23T13:00:21.882Z,7.10
2018-01-23T13:02:49.690Z,7.12
2018-01-23T13:05:17.402Z,6.43
2018-01-23T13:07:45.225Z,6.62
2018-01-23T13:10:12.991Z,6.90
2018-01-23T13:12:40.753Z,6.40
2018-01-23T13:15:08.531Z,6.72
2018-01-23T13:17:36.306Z,6.82
2018-01-23T13:20:04.849Z,7.00
2018-01-23T13:22:32.679Z,6.80
2018-01-23T13:25:00.400Z,7.00
2018-01-23T13:27:28.203Z,7.15
2018-01-23T13:29:56.022Z,7.10
2018-01-23T13:32:23.747Z,6.53
2018-01-23T13:34:51.686Z,6.28
2018-01-23T13:37:21.655Z,5.78
2018-01-23T13:39:49.375Z,6.35
2018-01-23T13:42:17.964Z,5.60
2018-01-23T13:44:45.764Z,5.87
2018-01-23T13:47:13.554Z,5.50
2018-01-23T13:49:41.281Z,5.47
2018-01-23T13:52:09.023Z,4.95
2018-01-23T13:54:36.799Z,5.30
2018-01-23T13:57:04.536Z,5.80
2018-01-23T13:59:32.348Z,5.37
2018-01-23T14:02:00.141Z,5.10
2018-01-23T14:04:30.009Z,5.40
2018-01-23T14:06:58.264Z,5.40
2018-01-23T14:09:26.423Z,5.62
2018-01-23T14:11:56.324Z,5.25
2018-01-23T14:14:26.775Z,5.12
2018-01-23T14:16:54.545Z,5.25
2018-01-23T14:19:52.140Z,5.57
2018-01-23T14:22:20.360Z,4.85
2018-01-23T14:24:48.425Z,5.25
2018-01-23T14:27:16.506Z,5.22
2018-01-23T14:29:48.225Z,5.00
2018-01-23T14:32:16.243Z,4.72
2018-01-23T14:34:53.471Z,8.00
2018-01-23T14:37:23.665Z,6.40
2018-01-23T14:40:27.245Z,5.10
2018-01-23T14:45:55.669Z,7.30
2018-01-23T14:48:23.624Z,5.47
2018-01-23T14:50:51.675Z,5.50
